MAH700 LJLJ-LQSA
Flight info
| Callsign | MAH700 |
|---|---|
| Flight time | 0h 37m |
| Altitude | 29000 |
| Route | LUPIX DCT GORPA DCT BOSNA |
| Aircraft | B733/M-SDE2E3FHIRW/S |
Departure
| Time | 2026-05-07 21:38 |
|---|---|
| Airport | Ljubljana Jože Pučnik Airport (LJLJ) |
Arrival
| Time | 2026-05-07 22:15 |
|---|---|
| Airport | Sarajevo International Airport (LQSA) |
| Time | Latitude | Longitude | Altitude | Speed | Heading |
|---|---|---|---|---|---|
| 2026-05-07 20:56 | 46.23098 | 14.45282 | 1263 ft | 0 kts | 36° |
| 2026-05-07 21:30 | 46.23093 | 14.45278 | 1263 ft | 2 kts | 36° |
| 2026-05-07 21:30 | 46.23081 | 14.45265 | 1263 ft | 2 kts | 36° |
| 2026-05-07 21:30 | 46.23069 | 14.45252 | 1262 ft | 2 kts | 36° |
| 2026-05-07 21:30 | 46.23061 | 14.45244 | 1262 ft | 1 kts | 37° |
| 2026-05-07 21:31 | 46.23048 | 14.45238 | 1262 ft | 2 kts | 347° |
| 2026-05-07 21:31 | 46.23037 | 14.45245 | 1262 ft | 0 kts | 311° |
| 2026-05-07 21:31 | 46.23033 | 14.45253 | 1262 ft | 1 kts | 304° |
| 2026-05-07 21:31 | 46.23032 | 14.45255 | 1262 ft | 0 kts | 306° |
| 2026-05-07 21:33 | 46.23033 | 14.45253 | 1262 ft | 0 kts | 306° |
| 2026-05-07 21:34 | 46.23045 | 14.45225 | 1262 ft | 5 kts | 286° |
| 2026-05-07 21:34 | 46.23013 | 14.45163 | 1263 ft | 9 kts | 217° |
| 2026-05-07 21:34 | 46.22965 | 14.45093 | 1263 ft | 9 kts | 256° |
| 2026-05-07 21:34 | 46.22990 | 14.45009 | 1264 ft | 9 kts | 307° |
| 2026-05-07 21:35 | 46.23030 | 14.44935 | 1266 ft | 9 kts | 306° |
| 2026-05-07 21:35 | 46.23069 | 14.44857 | 1267 ft | 10 kts | 306° |
| 2026-05-07 21:35 | 46.23116 | 14.44764 | 1269 ft | 12 kts | 306° |
| 2026-05-07 21:35 | 46.23171 | 14.44654 | 1271 ft | 14 kts | 306° |
| 2026-05-07 21:36 | 46.23234 | 14.44529 | 1273 ft | 16 kts | 305° |
| 2026-05-07 21:36 | 46.23307 | 14.44390 | 1276 ft | 18 kts | 310° |
| 2026-05-07 21:36 | 46.23387 | 14.44234 | 1278 ft | 20 kts | 299° |
| 2026-05-07 21:36 | 46.23340 | 14.44078 | 1279 ft | 20 kts | 190° |
| 2026-05-07 21:37 | 46.23207 | 14.44139 | 1278 ft | 21 kts | 141° |
| 2026-05-07 21:37 | 46.23092 | 14.44347 | 1274 ft | 45 kts | 126° |
| 2026-05-07 21:37 | 46.22755 | 14.45005 | 1261 ft | 115 kts | 126° |
| 2026-05-07 21:37 | 46.22158 | 14.46166 | 1248 ft | 168 kts | 127° |
| 2026-05-07 21:38 | 46.21455 | 14.47552 | 1705 ft | 175 kts | 126° |
| 2026-05-07 21:38 | 46.20747 | 14.49013 | 2248 ft | 182 kts | 124° |
| 2026-05-07 21:38 | 46.20031 | 14.50521 | 2690 ft | 191 kts | 128° |
| 2026-05-07 21:38 | 46.19171 | 14.52144 | 2829 ft | 218 kts | 128° |
| 2026-05-07 21:39 | 46.18205 | 14.53980 | 3082 ft | 240 kts | 128° |
| 2026-05-07 21:39 | 46.17171 | 14.55958 | 3615 ft | 256 kts | 127° |
| 2026-05-07 21:39 | 46.16075 | 14.58068 | 4154 ft | 271 kts | 127° |
| 2026-05-07 21:39 | 46.14936 | 14.60267 | 4876 ft | 279 kts | 127° |
| 2026-05-07 21:40 | 46.13776 | 14.62512 | 5643 ft | 284 kts | 127° |
| 2026-05-07 21:40 | 46.12599 | 14.64795 | 6433 ft | 288 kts | 126° |
| 2026-05-07 21:40 | 46.11406 | 14.67119 | 7246 ft | 290 kts | 126° |
| 2026-05-07 21:40 | 46.10217 | 14.69435 | 8113 ft | 290 kts | 127° |
| 2026-05-07 21:41 | 46.09045 | 14.71706 | 8906 ft | 292 kts | 127° |
| 2026-05-07 21:41 | 46.07869 | 14.73985 | 9665 ft | 294 kts | 127° |
| 2026-05-07 21:41 | 46.06653 | 14.76355 | 10295 ft | 302 kts | 126° |
| 2026-05-07 21:41 | 46.05379 | 14.78931 | 10390 ft | 329 kts | 126° |
| 2026-05-07 21:42 | 46.04027 | 14.81678 | 10834 ft | 343 kts | 126° |
| 2026-05-07 21:42 | 46.02640 | 14.84490 | 11525 ft | 349 kts | 126° |
| 2026-05-07 21:42 | 46.01235 | 14.87338 | 12231 ft | 353 kts | 126° |
| 2026-05-07 21:42 | 45.99809 | 14.90224 | 12919 ft | 358 kts | 127° |
| 2026-05-07 21:43 | 45.98362 | 14.93150 | 13602 ft | 363 kts | 127° |
| 2026-05-07 21:43 | 45.96902 | 14.96100 | 14308 ft | 366 kts | 127° |
| 2026-05-07 21:43 | 45.95427 | 14.99076 | 15007 ft | 369 kts | 127° |
| 2026-05-07 21:43 | 45.93936 | 15.02084 | 15682 ft | 373 kts | 127° |
| 2026-05-07 21:44 | 45.92425 | 15.05128 | 16376 ft | 376 kts | 127° |
| 2026-05-07 21:44 | 45.90907 | 15.08184 | 17041 ft | 380 kts | 127° |
| 2026-05-07 21:44 | 45.89358 | 15.11294 | 17673 ft | 384 kts | 127° |
| 2026-05-07 21:44 | 45.87933 | 15.14134 | 18233 ft | 387 kts | 127° |
| 2026-05-07 21:45 | 45.86320 | 15.17356 | 18873 ft | 391 kts | 127° |
| 2026-05-07 21:45 | 45.84724 | 15.20545 | 19432 ft | 395 kts | 127° |
| 2026-05-07 21:45 | 45.83112 | 15.23753 | 19986 ft | 400 kts | 128° |
| 2026-05-07 21:45 | 45.81484 | 15.26989 | 20541 ft | 403 kts | 128° |
| 2026-05-07 21:46 | 45.79843 | 15.30253 | 21061 ft | 408 kts | 128° |
| 2026-05-07 21:46 | 45.78172 | 15.33573 | 21554 ft | 412 kts | 128° |
| 2026-05-07 21:46 | 45.76456 | 15.36849 | 22078 ft | 415 kts | 131° |
| 2026-05-07 21:46 | 45.74646 | 15.40068 | 22588 ft | 418 kts | 132° |
| 2026-05-07 21:47 | 45.72817 | 15.43316 | 23058 ft | 423 kts | 132° |
| 2026-05-07 21:47 | 45.70977 | 15.46594 | 23555 ft | 426 kts | 133° |
| 2026-05-07 21:47 | 45.69118 | 15.49908 | 24017 ft | 430 kts | 133° |
| 2026-05-07 21:47 | 45.67246 | 15.53243 | 24474 ft | 434 kts | 133° |
| 2026-05-07 21:48 | 45.65356 | 15.56612 | 24915 ft | 438 kts | 133° |
| 2026-05-07 21:48 | 45.63445 | 15.60017 | 25355 ft | 441 kts | 133° |
| 2026-05-07 21:48 | 45.61521 | 15.63436 | 25757 ft | 445 kts | 133° |
| 2026-05-07 21:48 | 45.59573 | 15.66895 | 26153 ft | 449 kts | 134° |
| 2026-05-07 21:49 | 45.57613 | 15.70383 | 26573 ft | 453 kts | 134° |
| 2026-05-07 21:49 | 45.55631 | 15.73889 | 26991 ft | 455 kts | 134° |
| 2026-05-07 21:49 | 45.53643 | 15.77399 | 27394 ft | 458 kts | 134° |
| 2026-05-07 21:49 | 45.51639 | 15.80934 | 27774 ft | 462 kts | 134° |
| 2026-05-07 21:50 | 45.49614 | 15.84505 | 28110 ft | 466 kts | 134° |
| 2026-05-07 21:50 | 45.47582 | 15.88084 | 28578 ft | 466 kts | 134° |
| 2026-05-07 21:50 | 45.45548 | 15.91662 | 28918 ft | 469 kts | 134° |
| 2026-05-07 21:50 | 45.43509 | 15.95247 | 29043 ft | 462 kts | 134° |
| 2026-05-07 21:51 | 45.41516 | 15.98750 | 29072 ft | 451 kts | 135° |
| 2026-05-07 21:51 | 45.39543 | 16.02206 | 29048 ft | 450 kts | 134° |
| 2026-05-07 21:51 | 45.35608 | 16.09084 | 29044 ft | 449 kts | 135° |
| 2026-05-07 21:52 | 45.31674 | 16.15946 | 29044 ft | 450 kts | 135° |
| 2026-05-07 21:52 | 45.27730 | 16.22812 | 29048 ft | 449 kts | 134° |
| 2026-05-07 21:53 | 45.23795 | 16.29646 | 29042 ft | 448 kts | 134° |
| 2026-05-07 21:53 | 45.19855 | 16.36469 | 29045 ft | 449 kts | 134° |
| 2026-05-07 21:54 | 45.15904 | 16.43296 | 29049 ft | 449 kts | 134° |
| 2026-05-07 21:54 | 45.11945 | 16.50118 | 29054 ft | 448 kts | 134° |
| 2026-05-07 21:55 | 45.08002 | 16.56900 | 29041 ft | 448 kts | 134° |
| 2026-05-07 21:55 | 45.04055 | 16.63673 | 29047 ft | 447 kts | 134° |
| 2026-05-07 21:56 | 45.00096 | 16.70469 | 29046 ft | 447 kts | 135° |
| 2026-05-07 21:56 | 44.96133 | 16.77237 | 29055 ft | 448 kts | 135° |
| 2026-05-07 21:57 | 44.92171 | 16.83973 | 29046 ft | 447 kts | 135° |
| 2026-05-07 21:57 | 44.88189 | 16.90732 | 29039 ft | 446 kts | 135° |
| 2026-05-07 21:58 | 44.84218 | 16.97439 | 29049 ft | 446 kts | 135° |
| 2026-05-07 21:58 | 44.82237 | 17.00788 | 28939 ft | 446 kts | 135° |
| 2026-05-07 21:58 | 44.80256 | 17.04134 | 28101 ft | 448 kts | 135° |
| 2026-05-07 21:59 | 44.78268 | 17.07489 | 27260 ft | 447 kts | 135° |
| 2026-05-07 21:59 | 44.76294 | 17.10821 | 26596 ft | 442 kts | 135° |
| 2026-05-07 21:59 | 44.74348 | 17.14098 | 26011 ft | 435 kts | 135° |
| 2026-05-07 21:59 | 44.72428 | 17.17329 | 25438 ft | 429 kts | 135° |
| 2026-05-07 22:00 | 44.70534 | 17.20509 | 24849 ft | 423 kts | 134° |
| 2026-05-07 22:00 | 44.68662 | 17.23650 | 24261 ft | 417 kts | 135° |
| 2026-05-07 22:00 | 44.66819 | 17.26739 | 23688 ft | 411 kts | 134° |
| 2026-05-07 22:00 | 44.65001 | 17.29784 | 23134 ft | 405 kts | 134° |
| 2026-05-07 22:01 | 44.63213 | 17.32774 | 22588 ft | 399 kts | 134° |
| 2026-05-07 22:01 | 44.61440 | 17.35735 | 22039 ft | 399 kts | 134° |
| 2026-05-07 22:01 | 44.59639 | 17.38744 | 21502 ft | 406 kts | 134° |
| 2026-05-07 22:01 | 44.57841 | 17.41748 | 20940 ft | 400 kts | 134° |
| 2026-05-07 22:02 | 44.56067 | 17.44704 | 20377 ft | 394 kts | 134° |
| 2026-05-07 22:02 | 44.54322 | 17.47613 | 19840 ft | 388 kts | 134° |
| 2026-05-07 22:02 | 44.52604 | 17.50473 | 19312 ft | 383 kts | 134° |
| 2026-05-07 22:02 | 44.50903 | 17.53299 | 18785 ft | 377 kts | 134° |
| 2026-05-07 22:03 | 44.49222 | 17.56088 | 18271 ft | 372 kts | 134° |
| 2026-05-07 22:03 | 44.47569 | 17.58826 | 17763 ft | 369 kts | 133° |
| 2026-05-07 22:03 | 44.45900 | 17.61586 | 17252 ft | 377 kts | 133° |
| 2026-05-07 22:03 | 44.44214 | 17.64376 | 16732 ft | 374 kts | 133° |
| 2026-05-07 22:04 | 44.42543 | 17.67146 | 16201 ft | 369 kts | 133° |
| 2026-05-07 22:04 | 44.40937 | 17.69809 | 15704 ft | 363 kts | 133° |
| 2026-05-07 22:04 | 44.39324 | 17.72476 | 15207 ft | 358 kts | 133° |
| 2026-05-07 22:04 | 44.37716 | 17.75096 | 14719 ft | 352 kts | 137° |
| 2026-05-07 22:05 | 44.35781 | 17.77047 | 14215 ft | 340 kts | 156° |
| 2026-05-07 22:05 | 44.33675 | 17.78496 | 13726 ft | 336 kts | 156° |
| 2026-05-07 22:05 | 44.31603 | 17.79945 | 13266 ft | 332 kts | 156° |
| 2026-05-07 22:05 | 44.29566 | 17.81390 | 12805 ft | 325 kts | 156° |
| 2026-05-07 22:06 | 44.27573 | 17.82814 | 12356 ft | 319 kts | 156° |
| 2026-05-07 22:06 | 44.25621 | 17.84213 | 11928 ft | 312 kts | 156° |
| 2026-05-07 22:06 | 44.23708 | 17.85591 | 11504 ft | 307 kts | 156° |
| 2026-05-07 22:06 | 44.21829 | 17.86943 | 11076 ft | 302 kts | 156° |
| 2026-05-07 22:07 | 44.19967 | 17.88282 | 10660 ft | 297 kts | 156° |
| 2026-05-07 22:07 | 44.18142 | 17.89593 | 10257 ft | 293 kts | 156° |
| 2026-05-07 22:07 | 44.16344 | 17.90884 | 9916 ft | 286 kts | 156° |
| 2026-05-07 22:07 | 44.14629 | 17.92116 | 9884 ft | 268 kts | 156° |
| 2026-05-07 22:08 | 44.13013 | 17.93274 | 9903 ft | 256 kts | 157° |
| 2026-05-07 22:08 | 44.11337 | 17.94460 | 9885 ft | 280 kts | 156° |
| 2026-05-07 22:08 | 44.09593 | 17.95706 | 9525 ft | 282 kts | 156° |
| 2026-05-07 22:08 | 44.07841 | 17.96959 | 9062 ft | 284 kts | 156° |
| 2026-05-07 22:09 | 44.06086 | 17.98214 | 8633 ft | 285 kts | 155° |
| 2026-05-07 22:09 | 44.04331 | 17.99469 | 8242 ft | 283 kts | 156° |
| 2026-05-07 22:09 | 44.02585 | 18.00717 | 7871 ft | 281 kts | 155° |
| 2026-05-07 22:09 | 44.00795 | 18.01734 | 7500 ft | 277 kts | 164° |
| 2026-05-07 22:10 | 43.98995 | 18.02565 | 7310 ft | 268 kts | 164° |
| 2026-05-07 22:10 | 43.97241 | 18.03381 | 6955 ft | 266 kts | 163° |
| 2026-05-07 22:10 | 43.95479 | 18.04204 | 6488 ft | 269 kts | 163° |
| 2026-05-07 22:10 | 43.93723 | 18.05063 | 6183 ft | 264 kts | 156° |
| 2026-05-07 22:11 | 43.92359 | 18.06660 | 6013 ft | 257 kts | 123° |
| 2026-05-07 22:11 | 43.91521 | 18.08843 | 5662 ft | 257 kts | 118° |
| 2026-05-07 22:11 | 43.90713 | 18.11023 | 5233 ft | 248 kts | 118° |
| 2026-05-07 22:11 | 43.89948 | 18.13086 | 4847 ft | 233 kts | 118° |
| 2026-05-07 22:12 | 43.89225 | 18.15017 | 4530 ft | 216 kts | 119° |
| 2026-05-07 22:12 | 43.88563 | 18.16772 | 4299 ft | 198 kts | 120° |
| 2026-05-07 22:12 | 43.87957 | 18.18380 | 4092 ft | 181 kts | 120° |
| 2026-05-07 22:12 | 43.87378 | 18.19912 | 3839 ft | 180 kts | 120° |
| 2026-05-07 22:13 | 43.86836 | 18.21352 | 3759 ft | 157 kts | 120° |
| 2026-05-07 22:13 | 43.86329 | 18.22692 | 3559 ft | 156 kts | 120° |
| 2026-05-07 22:13 | 43.85840 | 18.24013 | 3306 ft | 153 kts | 117° |
| 2026-05-07 22:13 | 43.85390 | 18.25348 | 2971 ft | 152 kts | 116° |
| 2026-05-07 22:14 | 43.84927 | 18.26635 | 2711 ft | 148 kts | 117° |
| 2026-05-07 22:14 | 43.84460 | 18.27888 | 2488 ft | 145 kts | 118° |
| 2026-05-07 22:14 | 43.83990 | 18.29119 | 2276 ft | 144 kts | 118° |
| 2026-05-07 22:14 | 43.83516 | 18.30338 | 2039 ft | 144 kts | 118° |
| 2026-05-07 22:15 | 43.83054 | 18.31565 | 1790 ft | 143 kts | 117° |
| 2026-05-07 22:15 | 43.82598 | 18.32770 | 1711 ft | 134 kts | 117° |
| 2026-05-07 22:15 | 43.82261 | 18.33666 | 1711 ft | 56 kts | 117° |
| 2026-05-07 22:15 | 43.82101 | 18.34104 | 1711 ft | 46 kts | 117° |
| 2026-05-07 22:16 | 43.81975 | 18.34437 | 1711 ft | 29 kts | 116° |
| 2026-05-07 22:16 | 43.81964 | 18.34595 | 1711 ft | 4 kts | 47° |
| 2026-05-07 22:16 | 43.82005 | 18.34624 | 1711 ft | 9 kts | 11° |
| 2026-05-07 22:16 | 43.82083 | 18.34600 | 1711 ft | 12 kts | 324° |
| 2026-05-07 22:17 | 43.82138 | 18.34484 | 1711 ft | 16 kts | 295° |
| 2026-05-07 22:17 | 43.82194 | 18.34334 | 1711 ft | 17 kts | 296° |
| 2026-05-07 22:17 | 43.82251 | 18.34178 | 1711 ft | 18 kts | 297° |
| 2026-05-07 22:17 | 43.82311 | 18.34019 | 1711 ft | 18 kts | 297° |
| 2026-05-07 22:18 | 43.82369 | 18.33854 | 1711 ft | 19 kts | 297° |
| 2026-05-07 22:18 | 43.82451 | 18.33655 | 1711 ft | 7 kts | 322° |
| 2026-05-07 22:18 | 43.82481 | 18.33665 | 1711 ft | 4 kts | 30° |
| 2026-05-07 22:19 | 43.82513 | 18.33687 | 1711 ft | 5 kts | 26° |
| 2026-05-07 22:19 | 43.82521 | 18.33692 | 1711 ft | 0 kts | 25° |
| 2026-05-07 22:19 | 43.82526 | 18.33695 | 1711 ft | 0 kts | 24° |
| 2026-05-07 22:19 | 43.82528 | 18.33696 | 1711 ft | 0 kts | 24° |